sensor_id;sensor_type;location;lat;lon;timestamp;P1;durP1;ratioP1;P2;durP2;ratioP2
61525;SDS011;47394;41.366;-8.738;2022-10-16T00:01:13;23.45;;;6.72;;
61525;SDS011;47394;41.366;-8.738;2022-10-16T00:03:14;24.65;;;6.70;;
61525;SDS011;47394;41.366;-8.738;2022-10-16T00:05:15;20.50;;;6.43;;
61525;SDS011;47394;41.366;-8.738;2022-10-16T00:07:15;27.58;;;6.25;;
61525;SDS011;47394;41.366;-8.738;2022-10-16T00:09:16;35.75;;;6.90;;
61525;SDS011;47394;41.366;-8.738;2022-10-16T00:11:18;23.15;;;6.82;;
61525;SDS011;47394;41.366;-8.738;2022-10-16T00:13:19;28.45;;;7.55;;
61525;SDS011;47394;41.366;-8.738;2022-10-16T00:15:21;23.48;;;7.20;;
61525;SDS011;47394;41.366;-8.738;2022-10-16T00:17:21;30.75;;;7.32;;
61525;SDS011;47394;41.366;-8.738;2022-10-16T00:19:22;28.70;;;8.05;;
61525;SDS011;47394;41.366;-8.738;2022-10-16T00:21:24;37.75;;;8.10;;
61525;SDS011;47394;41.366;-8.738;2022-10-16T00:23:24;31.40;;;7.50;;
61525;SDS011;47394;41.366;-8.738;2022-10-16T00:25:25;37.03;;;7.97;;
61525;SDS011;47394;41.366;-8.738;2022-10-16T00:27:25;26.48;;;6.90;;
61525;SDS011;47394;41.366;-8.738;2022-10-16T00:29:26;18.23;;;5.75;;
61525;SDS011;47394;41.366;-8.738;2022-10-16T00:31:27;18.42;;;5.68;;
61525;SDS011;47394;41.366;-8.738;2022-10-16T00:33:27;16.33;;;5.50;;
61525;SDS011;47394;41.366;-8.738;2022-10-16T00:35:28;18.17;;;4.80;;
61525;SDS011;47394;41.366;-8.738;2022-10-16T00:37:29;21.08;;;5.97;;
61525;SDS011;47394;41.366;-8.738;2022-10-16T00:39:29;16.13;;;5.88;;
61525;SDS011;47394;41.366;-8.738;2022-10-16T00:41:30;20.65;;;5.82;;
61525;SDS011;47394;41.366;-8.738;2022-10-16T00:46:00;18.58;;;6.55;;
61525;SDS011;47394;41.366;-8.738;2022-10-16T00:48:01;13.35;;;5.00;;
61525;SDS011;47394;41.366;-8.738;2022-10-16T00:50:07;11.90;;;5.63;;
61525;SDS011;47394;41.366;-8.738;2022-10-16T00:52:08;12.27;;;5.63;;
61525;SDS011;47394;41.366;-8.738;2022-10-16T00:54:27;15.13;;;5.80;;
61525;SDS011;47394;41.366;-8.738;2022-10-16T00:56:29;13.02;;;5.75;;
61525;SDS011;47394;41.366;-8.738;2022-10-16T00:58:30;9.35;;;5.28;;
61525;SDS011;47394;41.366;-8.738;2022-10-16T01:00:30;12.95;;;6.93;;
61525;SDS011;47394;41.366;-8.738;2022-10-16T01:02:31;14.38;;;7.95;;
61525;SDS011;47394;41.366;-8.738;2022-10-16T01:04:36;20.17;;;7.35;;
61525;SDS011;47394;41.366;-8.738;2022-10-16T01:06:56;13.95;;;8.10;;
61525;SDS011;47394;41.366;-8.738;2022-10-16T01:11:44;11.00;;;8.60;;
61525;SDS011;47394;41.366;-8.738;2022-10-16T01:13:46;15.13;;;8.80;;
61525;SDS011;47394;41.366;-8.738;2022-10-16T01:18:10;13.35;;;8.20;;
61525;SDS011;47394;41.366;-8.738;2022-10-16T01:22:23;10.85;;;7.45;;
61525;SDS011;47394;41.366;-8.738;2022-10-16T01:28:39;14.13;;;7.28;;
61525;SDS011;47394;41.366;-8.738;2022-10-16T01:30:42;9.20;;;6.80;;
61525;SDS011;47394;41.366;-8.738;2022-10-16T01:32:55;12.63;;;7.25;;
61525;SDS011;47394;41.366;-8.738;2022-10-16T01:37:01;10.73;;;7.00;;
61525;SDS011;47394;41.366;-8.738;2022-10-16T01:39:02;13.30;;;7.60;;
61525;SDS011;47394;41.366;-8.738;2022-10-16T01:41:08;12.10;;;7.53;;
61525;SDS011;47394;41.366;-8.738;2022-10-16T01:43:14;13.48;;;6.97;;
61525;SDS011;47394;41.366;-8.738;2022-10-16T01:45:16;14.00;;;7.07;;
61525;SDS011;47394;41.366;-8.738;2022-10-16T01:47:18;15.52;;;7.07;;
61525;SDS011;47394;41.366;-8.738;2022-10-16T01:49:23;14.32;;;6.82;;
61525;SDS011;47394;41.366;-8.738;2022-10-16T01:51:24;11.75;;;6.95;;
61525;SDS011;47394;41.366;-8.738;2022-10-16T01:53:26;16.50;;;7.45;;
61525;SDS011;47394;41.366;-8.738;2022-10-16T01:55:31;16.83;;;7.35;;
61525;SDS011;47394;41.366;-8.738;2022-10-16T01:57:33;14.48;;;7.28;;
61525;SDS011;47394;41.366;-8.738;2022-10-16T01:59:38;18.40;;;8.82;;
61525;SDS011;47394;41.366;-8.738;2022-10-16T02:01:40;20.60;;;9.23;;
61525;SDS011;47394;41.366;-8.738;2022-10-16T02:03:42;14.90;;;8.48;;
61525;SDS011;47394;41.366;-8.738;2022-10-16T02:05:45;16.38;;;9.20;;
61525;SDS011;47394;41.366;-8.738;2022-10-16T02:07:47;18.75;;;9.07;;
61525;SDS011;47394;41.366;-8.738;2022-10-16T02:09:47;15.57;;;8.40;;
61525;SDS011;47394;41.366;-8.738;2022-10-16T02:11:48;10.13;;;7.15;;
61525;SDS011;47394;41.366;-8.738;2022-10-16T02:13:51;17.13;;;7.93;;
61525;SDS011;47394;41.366;-8.738;2022-10-16T02:15:53;14.18;;;7.88;;
61525;SDS011;47394;41.366;-8.738;2022-10-16T02:17:55;12.95;;;8.27;;
61525;SDS011;47394;41.366;-8.738;2022-10-16T02:19:55;12.77;;;8.10;;
61525;SDS011;47394;41.366;-8.738;2022-10-16T02:21:58;15.93;;;8.10;;
61525;SDS011;47394;41.366;-8.738;2022-10-16T02:24:10;13.07;;;7.30;;
61525;SDS011;47394;41.366;-8.738;2022-10-16T02:26:13;12.65;;;6.63;;
61525;SDS011;47394;41.366;-8.738;2022-10-16T02:28:19;10.35;;;5.93;;
61525;SDS011;47394;41.366;-8.738;2022-10-16T02:32:37;7.85;;;5.18;;
61525;SDS011;47394;41.366;-8.738;2022-10-16T02:34:39;11.38;;;5.40;;
61525;SDS011;47394;41.366;-8.738;2022-10-16T02:36:40;11.93;;;5.47;;
61525;SDS011;47394;41.366;-8.738;2022-10-16T02:38:41;9.30;;;5.00;;
61525;SDS011;47394;41.366;-8.738;2022-10-16T02:40:41;13.45;;;5.60;;
61525;SDS011;47394;41.366;-8.738;2022-10-16T02:42:42;10.13;;;5.90;;
61525;SDS011;47394;41.366;-8.738;2022-10-16T02:44:43;12.65;;;5.60;;
61525;SDS011;47394;41.366;-8.738;2022-10-16T02:46:44;11.00;;;5.88;;
61525;SDS011;47394;41.366;-8.738;2022-10-16T02:48:44;14.13;;;6.38;;
61525;SDS011;47394;41.366;-8.738;2022-10-16T02:50:45;17.98;;;6.32;;
61525;SDS011;47394;41.366;-8.738;2022-10-16T02:52:45;11.70;;;5.70;;
61525;SDS011;47394;41.366;-8.738;2022-10-16T02:54:46;12.52;;;6.00;;
61525;SDS011;47394;41.366;-8.738;2022-10-16T02:56:46;14.35;;;6.03;;
61525;SDS011;47394;41.366;-8.738;2022-10-16T02:58:47;10.23;;;5.72;;
61525;SDS011;47394;41.366;-8.738;2022-10-16T03:00:47;16.00;;;5.15;;
61525;SDS011;47394;41.366;-8.738;2022-10-16T03:02:48;18.23;;;5.70;;
61525;SDS011;47394;41.366;-8.738;2022-10-16T03:04:48;12.25;;;4.95;;
61525;SDS011;47394;41.366;-8.738;2022-10-16T03:06:49;11.85;;;4.97;;
61525;SDS011;47394;41.366;-8.738;2022-10-16T03:08:49;9.70;;;4.15;;
61525;SDS011;47394;41.366;-8.738;2022-10-16T03:10:50;13.23;;;5.30;;
61525;SDS011;47394;41.366;-8.738;2022-10-16T03:12:51;16.80;;;6.18;;
61525;SDS011;47394;41.366;-8.738;2022-10-16T03:14:52;17.40;;;7.00;;
61525;SDS011;47394;41.366;-8.738;2022-10-16T03:16:53;14.15;;;6.45;;
61525;SDS011;47394;41.366;-8.738;2022-10-16T03:18:53;21.95;;;7.07;;
61525;SDS011;47394;41.366;-8.738;2022-10-16T03:20:54;20.23;;;7.97;;
61525;SDS011;47394;41.366;-8.738;2022-10-16T03:22:55;22.85;;;6.88;;
61525;SDS011;47394;41.366;-8.738;2022-10-16T03:24:56;22.23;;;7.45;;
61525;SDS011;47394;41.366;-8.738;2022-10-16T03:26:56;17.45;;;7.10;;
61525;SDS011;47394;41.366;-8.738;2022-10-16T03:28:57;21.30;;;7.55;;
61525;SDS011;47394;41.366;-8.738;2022-10-16T03:30:58;22.95;;;7.40;;
61525;SDS011;47394;41.366;-8.738;2022-10-16T03:32:58;16.10;;;6.63;;
61525;SDS011;47394;41.366;-8.738;2022-10-16T03:34:59;15.30;;;6.50;;
61525;SDS011;47394;41.366;-8.738;2022-10-16T03:36:59;14.45;;;6.70;;
61525;SDS011;47394;41.366;-8.738;2022-10-16T03:39:00;23.98;;;7.70;;
61525;SDS011;47394;41.366;-8.738;2022-10-16T03:41:00;15.43;;;6.93;;
61525;SDS011;47394;41.366;-8.738;2022-10-16T03:43:01;32.55;;;8.18;;
61525;SDS011;47394;41.366;-8.738;2022-10-16T03:45:01;25.42;;;8.65;;
61525;SDS011;47394;41.366;-8.738;2022-10-16T03:47:02;23.95;;;10.23;;
61525;SDS011;47394;41.366;-8.738;2022-10-16T03:49:03;24.17;;;10.18;;
61525;SDS011;47394;41.366;-8.738;2022-10-16T03:51:03;38.33;;;10.82;;
61525;SDS011;47394;41.366;-8.738;2022-10-16T03:53:04;29.85;;;11.63;;
61525;SDS011;47394;41.366;-8.738;2022-10-16T03:55:04;34.15;;;11.18;;
61525;SDS011;47394;41.366;-8.738;2022-10-16T03:57:05;36.75;;;11.65;;
61525;SDS011;47394;41.366;-8.738;2022-10-16T03:59:06;40.45;;;10.20;;
61525;SDS011;47394;41.366;-8.738;2022-10-16T04:01:06;31.40;;;9.55;;
61525;SDS011;47394;41.366;-8.738;2022-10-16T04:03:07;31.13;;;11.77;;
61525;SDS011;47394;41.366;-8.738;2022-10-16T04:05:08;41.20;;;12.50;;
61525;SDS011;47394;41.366;-8.738;2022-10-16T04:07:09;36.50;;;11.88;;
61525;SDS011;47394;41.366;-8.738;2022-10-16T04:09:09;37.65;;;11.85;;
61525;SDS011;47394;41.366;-8.738;2022-10-16T04:11:10;36.17;;;10.50;;
61525;SDS011;47394;41.366;-8.738;2022-10-16T04:13:11;45.88;;;11.18;;
61525;SDS011;47394;41.366;-8.738;2022-10-16T04:15:11;45.03;;;11.13;;
61525;SDS011;47394;41.366;-8.738;2022-10-16T04:17:12;42.20;;;11.48;;
61525;SDS011;47394;41.366;-8.738;2022-10-16T04:19:12;46.45;;;12.07;;
61525;SDS011;47394;41.366;-8.738;2022-10-16T04:21:13;54.85;;;10.68;;
61525;SDS011;47394;41.366;-8.738;2022-10-16T04:23:14;43.67;;;11.07;;
61525;SDS011;47394;41.366;-8.738;2022-10-16T04:25:14;49.47;;;10.77;;
61525;SDS011;47394;41.366;-8.738;2022-10-16T04:27:15;48.15;;;10.48;;
61525;SDS011;47394;41.366;-8.738;2022-10-16T04:29:15;32.78;;;9.85;;
61525;SDS011;47394;41.366;-8.738;2022-10-16T04:31:16;43.38;;;9.48;;
61525;SDS011;47394;41.366;-8.738;2022-10-16T04:33:16;44.13;;;10.88;;
61525;SDS011;47394;41.366;-8.738;2022-10-16T04:35:17;42.50;;;10.27;;
61525;SDS011;47394;41.366;-8.738;2022-10-16T04:37:18;34.72;;;9.98;;
61525;SDS011;47394;41.366;-8.738;2022-10-16T04:39:18;36.25;;;9.60;;
61525;SDS011;47394;41.366;-8.738;2022-10-16T04:41:19;59.97;;;10.55;;
61525;SDS011;47394;41.366;-8.738;2022-10-16T04:43:20;47.03;;;10.82;;
61525;SDS011;47394;41.366;-8.738;2022-10-16T04:45:20;47.08;;;10.65;;
61525;SDS011;47394;41.366;-8.738;2022-10-16T04:47:21;57.40;;;10.70;;
61525;SDS011;47394;41.366;-8.738;2022-10-16T04:49:21;54.58;;;12.32;;
61525;SDS011;47394;41.366;-8.738;2022-10-16T04:51:22;59.97;;;12.10;;
61525;SDS011;47394;41.366;-8.738;2022-10-16T04:53:23;57.35;;;11.18;;
61525;SDS011;47394;41.366;-8.738;2022-10-16T04:55:23;44.15;;;9.90;;
61525;SDS011;47394;41.366;-8.738;2022-10-16T04:57:24;43.10;;;9.52;;
61525;SDS011;47394;41.366;-8.738;2022-10-16T04:59:24;36.13;;;8.30;;
61525;SDS011;47394;41.366;-8.738;2022-10-16T05:01:25;31.33;;;8.18;;
61525;SDS011;47394;41.366;-8.738;2022-10-16T05:03:25;32.03;;;7.90;;
61525;SDS011;47394;41.366;-8.738;2022-10-16T05:05:26;26.60;;;7.45;;
61525;SDS011;47394;41.366;-8.738;2022-10-16T05:07:27;21.02;;;6.35;;
61525;SDS011;47394;41.366;-8.738;2022-10-16T05:09:27;17.48;;;5.32;;
61525;SDS011;47394;41.366;-8.738;2022-10-16T05:11:28;20.67;;;5.05;;
61525;SDS011;47394;41.366;-8.738;2022-10-16T05:13:28;16.65;;;4.75;;
61525;SDS011;47394;41.366;-8.738;2022-10-16T05:15:29;13.20;;;4.43;;
61525;SDS011;47394;41.366;-8.738;2022-10-16T05:17:29;13.68;;;4.35;;
61525;SDS011;47394;41.366;-8.738;2022-10-16T05:19:30;20.63;;;5.07;;
61525;SDS011;47394;41.366;-8.738;2022-10-16T05:21:30;29.33;;;5.30;;
61525;SDS011;47394;41.366;-8.738;2022-10-16T05:23:31;17.30;;;4.70;;
61525;SDS011;47394;41.366;-8.738;2022-10-16T05:25:31;16.15;;;5.22;;
61525;SDS011;47394;41.366;-8.738;2022-10-16T05:27:32;14.23;;;5.25;;
61525;SDS011;47394;41.366;-8.738;2022-10-16T05:29:32;18.85;;;5.78;;
61525;SDS011;47394;41.366;-8.738;2022-10-16T05:31:33;28.88;;;6.10;;
61525;SDS011;47394;41.366;-8.738;2022-10-16T05:33:33;21.17;;;5.88;;
61525;SDS011;47394;41.366;-8.738;2022-10-16T05:35:34;29.45;;;6.97;;
61525;SDS011;47394;41.366;-8.738;2022-10-16T05:37:35;25.83;;;6.18;;
61525;SDS011;47394;41.366;-8.738;2022-10-16T05:39:35;25.08;;;7.63;;
61525;SDS011;47394;41.366;-8.738;2022-10-16T05:41:37;34.20;;;8.02;;
61525;SDS011;47394;41.366;-8.738;2022-10-16T05:43:37;30.30;;;7.90;;
61525;SDS011;47394;41.366;-8.738;2022-10-16T05:45:38;52.42;;;8.88;;
61525;SDS011;47394;41.366;-8.738;2022-10-16T05:47:38;31.10;;;8.48;;
61525;SDS011;47394;41.366;-8.738;2022-10-16T05:49:39;35.22;;;8.10;;
61525;SDS011;47394;41.366;-8.738;2022-10-16T05:51:39;48.45;;;8.45;;
61525;SDS011;47394;41.366;-8.738;2022-10-16T05:53:41;36.38;;;7.85;;
61525;SDS011;47394;41.366;-8.738;2022-10-16T05:55:41;26.13;;;8.30;;
61525;SDS011;47394;41.366;-8.738;2022-10-16T05:57:42;21.73;;;7.15;;
61525;SDS011;47394;41.366;-8.738;2022-10-16T05:59:43;19.30;;;7.38;;
61525;SDS011;47394;41.366;-8.738;2022-10-16T06:01:43;17.23;;;6.93;;
61525;SDS011;47394;41.366;-8.738;2022-10-16T06:03:44;18.20;;;6.80;;
61525;SDS011;47394;41.366;-8.738;2022-10-16T06:05:44;21.25;;;6.10;;
61525;SDS011;47394;41.366;-8.738;2022-10-16T06:07:45;23.60;;;6.70;;
61525;SDS011;47394;41.366;-8.738;2022-10-16T06:09:49;16.20;;;5.82;;
61525;SDS011;47394;41.366;-8.738;2022-10-16T06:11:50;21.55;;;4.95;;
61525;SDS011;47394;41.366;-8.738;2022-10-16T06:13:54;12.93;;;5.43;;
61525;SDS011;47394;41.366;-8.738;2022-10-16T06:15:57;11.43;;;4.70;;
61525;SDS011;47394;41.366;-8.738;2022-10-16T06:17:58;11.20;;;4.63;;
61525;SDS011;47394;41.366;-8.738;2022-10-16T06:19:58;7.53;;;4.63;;
61525;SDS011;47394;41.366;-8.738;2022-10-16T06:21:59;12.32;;;5.05;;
61525;SDS011;47394;41.366;-8.738;2022-10-16T06:24:00;7.28;;;3.50;;
61525;SDS011;47394;41.366;-8.738;2022-10-16T06:26:05;11.95;;;3.53;;
61525;SDS011;47394;41.366;-8.738;2022-10-16T06:28:05;6.97;;;3.35;;
61525;SDS011;47394;41.366;-8.738;2022-10-16T06:30:06;7.05;;;3.08;;
61525;SDS011;47394;41.366;-8.738;2022-10-16T06:32:06;10.88;;;3.20;;
61525;SDS011;47394;41.366;-8.738;2022-10-16T06:34:10;10.60;;;3.40;;
61525;SDS011;47394;41.366;-8.738;2022-10-16T06:36:13;7.47;;;2.80;;
61525;SDS011;47394;41.366;-8.738;2022-10-16T06:38:14;16.42;;;3.70;;
61525;SDS011;47394;41.366;-8.738;2022-10-16T06:40:15;12.00;;;3.60;;
61525;SDS011;47394;41.366;-8.738;2022-10-16T06:42:15;13.00;;;3.53;;
61525;SDS011;47394;41.366;-8.738;2022-10-16T06:44:16;12.15;;;3.60;;
61525;SDS011;47394;41.366;-8.738;2022-10-16T06:46:18;14.27;;;2.80;;
61525;SDS011;47394;41.366;-8.738;2022-10-16T06:48:20;11.07;;;2.80;;
61525;SDS011;47394;41.366;-8.738;2022-10-16T06:50:21;7.38;;;2.53;;
61525;SDS011;47394;41.366;-8.738;2022-10-16T06:52:21;9.02;;;2.30;;
61525;SDS011;47394;41.366;-8.738;2022-10-16T06:54:22;6.25;;;2.30;;
61525;SDS011;47394;41.366;-8.738;2022-10-16T06:56:23;3.47;;;2.00;;
61525;SDS011;47394;41.366;-8.738;2022-10-16T06:58:24;7.15;;;2.05;;
61525;SDS011;47394;41.366;-8.738;2022-10-16T07:00:25;5.45;;;1.50;;
61525;SDS011;47394;41.366;-8.738;2022-10-16T07:02:25;3.63;;;1.58;;
61525;SDS011;47394;41.366;-8.738;2022-10-16T07:04:26;2.58;;;1.20;;
61525;SDS011;47394;41.366;-8.738;2022-10-16T07:06:26;2.75;;;1.40;;
61525;SDS011;47394;41.366;-8.738;2022-10-16T07:08:27;2.88;;;1.02;;
61525;SDS011;47394;41.366;-8.738;2022-10-16T07:10:28;2.30;;;1.30;;
61525;SDS011;47394;41.366;-8.738;2022-10-16T07:12:28;3.25;;;1.08;;
61525;SDS011;47394;41.366;-8.738;2022-10-16T07:14:29;2.72;;;0.93;;
61525;SDS011;47394;41.366;-8.738;2022-10-16T07:16:30;2.00;;;0.90;;
61525;SDS011;47394;41.366;-8.738;2022-10-16T07:18:31;5.72;;;1.52;;
61525;SDS011;47394;41.366;-8.738;2022-10-16T07:20:32;2.20;;;1.15;;
61525;SDS011;47394;41.366;-8.738;2022-10-16T07:22:33;4.82;;;1.20;;
61525;SDS011;47394;41.366;-8.738;2022-10-16T07:24:33;1.58;;;1.02;;
61525;SDS011;47394;41.366;-8.738;2022-10-16T07:26:35;4.47;;;1.10;;
61525;SDS011;47394;41.366;-8.738;2022-10-16T07:28:36;2.83;;;1.10;;
61525;SDS011;47394;41.366;-8.738;2022-10-16T07:30:36;1.58;;;0.90;;
61525;SDS011;47394;41.366;-8.738;2022-10-16T07:32:37;2.67;;;1.00;;
61525;SDS011;47394;41.366;-8.738;2022-10-16T07:34:38;3.50;;;1.55;;
61525;SDS011;47394;41.366;-8.738;2022-10-16T07:36:38;2.63;;;0.85;;
61525;SDS011;47394;41.366;-8.738;2022-10-16T07:38:39;2.00;;;1.00;;
61525;SDS011;47394;41.366;-8.738;2022-10-16T07:40:39;4.43;;;0.77;;
61525;SDS011;47394;41.366;-8.738;2022-10-16T07:42:40;1.75;;;0.88;;
61525;SDS011;47394;41.366;-8.738;2022-10-16T07:44:41;1.98;;;0.90;;
61525;SDS011;47394;41.366;-8.738;2022-10-16T07:46:41;3.45;;;0.85;;
61525;SDS011;47394;41.366;-8.738;2022-10-16T07:48:42;2.28;;;0.93;;
61525;SDS011;47394;41.366;-8.738;2022-10-16T07:50:45;3.92;;;1.10;;
61525;SDS011;47394;41.366;-8.738;2022-10-16T07:52:46;3.08;;;0.90;;
61525;SDS011;47394;41.366;-8.738;2022-10-16T07:54:47;7.47;;;1.10;;
61525;SDS011;47394;41.366;-8.738;2022-10-16T07:56:47;2.88;;;1.20;;
61525;SDS011;47394;41.366;-8.738;2022-10-16T07:58:48;2.50;;;1.08;;
61525;SDS011;47394;41.366;-8.738;2022-10-16T08:00:49;2.50;;;0.77;;
61525;SDS011;47394;41.366;-8.738;2022-10-16T08:02:50;1.23;;;0.70;;
61525;SDS011;47394;41.366;-8.738;2022-10-16T08:04:50;4.38;;;1.33;;
61525;SDS011;47394;41.366;-8.738;2022-10-16T08:06:51;2.10;;;0.75;;
61525;SDS011;47394;41.366;-8.738;2022-10-16T08:08:52;2.22;;;0.93;;
61525;SDS011;47394;41.366;-8.738;2022-10-16T08:10:52;4.72;;;0.80;;
61525;SDS011;47394;41.366;-8.738;2022-10-16T08:12:53;1.13;;;0.65;;
61525;SDS011;47394;41.366;-8.738;2022-10-16T08:14:54;4.65;;;0.82;;
61525;SDS011;47394;41.366;-8.738;2022-10-16T08:16:54;3.55;;;0.95;;
61525;SDS011;47394;41.366;-8.738;2022-10-16T08:18:55;37.35;;;19.25;;
61525;SDS011;47394;41.366;-8.738;2022-10-16T08:20:59;85.18;;;41.80;;
61525;SDS011;47394;41.366;-8.738;2022-10-16T08:23:00;35.03;;;18.73;;
61525;SDS011;47394;41.366;-8.738;2022-10-16T08:25:01;38.22;;;20.30;;
61525;SDS011;47394;41.366;-8.738;2022-10-16T08:27:01;40.78;;;26.50;;
61525;SDS011;47394;41.366;-8.738;2022-10-16T08:29:02;23.88;;;17.27;;
61525;SDS011;47394;41.366;-8.738;2022-10-16T08:31:06;18.50;;;12.32;;
61525;SDS011;47394;41.366;-8.738;2022-10-16T08:33:07;9.07;;;5.32;;
61525;SDS011;47394;41.366;-8.738;2022-10-16T08:35:08;6.32;;;3.75;;
61525;SDS011;47394;41.366;-8.738;2022-10-16T08:37:09;9.52;;;4.40;;
61525;SDS011;47394;41.366;-8.738;2022-10-16T08:39:11;11.55;;;4.85;;
61525;SDS011;47394;41.366;-8.738;2022-10-16T08:43:34;8.25;;;3.20;;
61525;SDS011;47394;41.366;-8.738;2022-10-16T08:46:21;3.60;;;3.00;;
61525;SDS011;47394;41.366;-8.738;2022-10-16T08:50:08;9.65;;;4.20;;
61525;SDS011;47394;41.366;-8.738;2022-10-16T08:52:12;4.18;;;2.60;;
61525;SDS011;47394;41.366;-8.738;2022-10-16T08:56:14;4.68;;;1.85;;
61525;SDS011;47394;41.366;-8.738;2022-10-16T08:58:16;4.88;;;2.90;;
61525;SDS011;47394;41.366;-8.738;2022-10-16T09:00:17;6.70;;;1.73;;
61525;SDS011;47394;41.366;-8.738;2022-10-16T09:10:51;6.93;;;2.08;;
61525;SDS011;47394;41.366;-8.738;2022-10-16T09:13:02;7.93;;;2.40;;
61525;SDS011;47394;41.366;-8.738;2022-10-16T09:15:11;5.18;;;2.38;;
61525;SDS011;47394;41.366;-8.738;2022-10-16T09:19:36;8.18;;;2.67;;
61525;SDS011;47394;41.366;-8.738;2022-10-16T09:21:39;6.22;;;1.98;;
61525;SDS011;47394;41.366;-8.738;2022-10-16T09:23:41;4.20;;;1.90;;
61525;SDS011;47394;41.366;-8.738;2022-10-16T09:25:43;9.88;;;2.47;;
61525;SDS011;47394;41.366;-8.738;2022-10-16T09:27:45;5.15;;;2.72;;
61525;SDS011;47394;41.366;-8.738;2022-10-16T09:29:46;6.88;;;2.40;;
61525;SDS011;47394;41.366;-8.738;2022-10-16T09:31:47;4.82;;;2.70;;
61525;SDS011;47394;41.366;-8.738;2022-10-16T09:36:14;6.68;;;2.78;;
61525;SDS011;47394;41.366;-8.738;2022-10-16T09:38:48;4.35;;;2.10;;
61525;SDS011;47394;41.366;-8.738;2022-10-16T09:40:41;6.20;;;2.38;;
61525;SDS011;47394;41.366;-8.738;2022-10-16T09:42:42;7.38;;;2.80;;
61525;SDS011;47394;41.366;-8.738;2022-10-16T09:44:46;6.30;;;2.25;;
61525;SDS011;47394;41.366;-8.738;2022-10-16T09:46:47;9.20;;;2.65;;
61525;SDS011;47394;41.366;-8.738;2022-10-16T09:48:48;10.30;;;2.83;;
61525;SDS011;47394;41.366;-8.738;2022-10-16T09:50:59;11.45;;;3.25;;
61525;SDS011;47394;41.366;-8.738;2022-10-16T09:55:15;4.93;;;2.45;;
61525;SDS011;47394;41.366;-8.738;2022-10-16T09:57:15;8.68;;;3.65;;
61525;SDS011;47394;41.366;-8.738;2022-10-16T09:59:17;6.57;;;1.90;;
61525;SDS011;47394;41.366;-8.738;2022-10-16T10:01:17;9.10;;;1.88;;
61525;SDS011;47394;41.366;-8.738;2022-10-16T10:03:55;7.40;;;1.70;;
61525;SDS011;47394;41.366;-8.738;2022-10-16T10:05:47;8.38;;;3.22;;
61525;SDS011;47394;41.366;-8.738;2022-10-16T10:07:53;12.55;;;3.80;;
61525;SDS011;47394;41.366;-8.738;2022-10-16T10:09:54;6.45;;;2.30;;
61525;SDS011;47394;41.366;-8.738;2022-10-16T10:11:57;6.22;;;1.73;;
61525;SDS011;47394;41.366;-8.738;2022-10-16T10:16:24;8.93;;;3.85;;
61525;SDS011;47394;41.366;-8.738;2022-10-16T10:18:25;8.15;;;2.53;;
61525;SDS011;47394;41.366;-8.738;2022-10-16T10:20:27;11.32;;;4.18;;
61525;SDS011;47394;41.366;-8.738;2022-10-16T10:22:30;15.43;;;5.40;;
61525;SDS011;47394;41.366;-8.738;2022-10-16T10:26:31;8.60;;;2.28;;
61525;SDS011;47394;41.366;-8.738;2022-10-16T10:31:06;22.75;;;3.88;;
61525;SDS011;47394;41.366;-8.738;2022-10-16T10:35:18;38.63;;;5.30;;
61525;SDS011;47394;41.366;-8.738;2022-10-16T10:39:35;17.05;;;4.05;;
61525;SDS011;47394;41.366;-8.738;2022-10-16T10:42:00;16.55;;;4.65;;
61525;SDS011;47394;41.366;-8.738;2022-10-16T10:46:28;32.80;;;5.88;;
61525;SDS011;47394;41.366;-8.738;2022-10-16T10:48:54;21.77;;;6.05;;
61525;SDS011;47394;41.366;-8.738;2022-10-16T10:51:01;20.38;;;4.10;;
61525;SDS011;47394;41.366;-8.738;2022-10-16T10:57:54;22.02;;;4.57;;
61525;SDS011;47394;41.366;-8.738;2022-10-16T11:02:52;15.88;;;3.63;;
61525;SDS011;47394;41.366;-8.738;2022-10-16T11:07:13;16.50;;;3.80;;
61525;SDS011;47394;41.366;-8.738;2022-10-16T11:09:20;14.20;;;4.45;;
61525;SDS011;47394;41.366;-8.738;2022-10-16T11:13:32;14.40;;;2.90;;
61525;SDS011;47394;41.366;-8.738;2022-10-16T11:15:35;20.30;;;4.95;;
61525;SDS011;47394;41.366;-8.738;2022-10-16T11:20:11;46.97;;;8.07;;
61525;SDS011;47394;41.366;-8.738;2022-10-16T11:22:48;49.05;;;8.63;;
61525;SDS011;47394;41.366;-8.738;2022-10-16T11:24:42;40.35;;;8.32;;
61525;SDS011;47394;41.366;-8.738;2022-10-16T11:26:45;30.55;;;5.97;;
61525;SDS011;47394;41.366;-8.738;2022-10-16T11:28:50;35.53;;;6.32;;
61525;SDS011;47394;41.366;-8.738;2022-10-16T11:30:59;40.97;;;7.78;;
61525;SDS011;47394;41.366;-8.738;2022-10-16T11:35:22;47.40;;;9.07;;
61525;SDS011;47394;41.366;-8.738;2022-10-16T11:39:24;58.58;;;10.55;;
61525;SDS011;47394;41.366;-8.738;2022-10-16T11:41:27;45.08;;;9.98;;
61525;SDS011;47394;41.366;-8.738;2022-10-16T11:43:32;54.88;;;11.63;;
61525;SDS011;47394;41.366;-8.738;2022-10-16T11:45:34;49.08;;;10.70;;
61525;SDS011;47394;41.366;-8.738;2022-10-16T11:47:48;36.55;;;8.02;;
61525;SDS011;47394;41.366;-8.738;2022-10-16T11:49:53;27.85;;;6.10;;
61525;SDS011;47394;41.366;-8.738;2022-10-16T11:54:02;56.55;;;9.35;;
61525;SDS011;47394;41.366;-8.738;2022-10-16T11:56:05;34.20;;;6.13;;
61525;SDS011;47394;41.366;-8.738;2022-10-16T11:58:07;46.28;;;7.55;;
61525;SDS011;47394;41.366;-8.738;2022-10-16T12:00:10;43.08;;;7.78;;
61525;SDS011;47394;41.366;-8.738;2022-10-16T12:08:33;32.70;;;5.65;;
61525;SDS011;47394;41.366;-8.738;2022-10-16T12:10:34;12.07;;;3.03;;
61525;SDS011;47394;41.366;-8.738;2022-10-16T12:12:39;15.45;;;3.58;;
61525;SDS011;47394;41.366;-8.738;2022-10-16T12:14:40;27.63;;;4.20;;
61525;SDS011;47394;41.366;-8.738;2022-10-16T12:16:56;16.15;;;3.33;;
61525;SDS011;47394;41.366;-8.738;2022-10-16T12:19:13;20.35;;;2.90;;
61525;SDS011;47394;41.366;-8.738;2022-10-16T12:21:14;9.45;;;2.47;;
61525;SDS011;47394;41.366;-8.738;2022-10-16T12:23:19;11.73;;;3.00;;
61525;SDS011;47394;41.366;-8.738;2022-10-16T12:27:26;12.18;;;2.85;;
61525;SDS011;47394;41.366;-8.738;2022-10-16T12:31:38;27.65;;;3.13;;
61525;SDS011;47394;41.366;-8.738;2022-10-16T12:33:51;19.00;;;3.67;;
61525;SDS011;47394;41.366;-8.738;2022-10-16T12:35:54;30.05;;;4.65;;
61525;SDS011;47394;41.366;-8.738;2022-10-16T12:38:03;29.98;;;5.90;;
61525;SDS011;47394;41.366;-8.738;2022-10-16T12:40:15;59.03;;;9.32;;
61525;SDS011;47394;41.366;-8.738;2022-10-16T12:42:21;76.13;;;12.00;;
61525;SDS011;47394;41.366;-8.738;2022-10-16T12:44:25;51.67;;;9.70;;
61525;SDS011;47394;41.366;-8.738;2022-10-16T12:48:28;26.38;;;5.80;;
61525;SDS011;47394;41.366;-8.738;2022-10-16T12:50:36;13.65;;;4.13;;
61525;SDS011;47394;41.366;-8.738;2022-10-16T12:52:38;20.08;;;4.13;;
61525;SDS011;47394;41.366;-8.738;2022-10-16T12:54:38;16.45;;;4.03;;
61525;SDS011;47394;41.366;-8.738;2022-10-16T13:01:26;24.15;;;4.03;;
61525;SDS011;47394;41.366;-8.738;2022-10-16T13:09:53;44.15;;;6.90;;
61525;SDS011;47394;41.366;-8.738;2022-10-16T13:18:42;34.53;;;7.03;;
61525;SDS011;47394;41.366;-8.738;2022-10-16T13:20:58;37.42;;;8.30;;
61525;SDS011;47394;41.366;-8.738;2022-10-16T13:23:09;53.38;;;9.18;;
61525;SDS011;47394;41.366;-8.738;2022-10-16T13:27:33;16.33;;;3.40;;
61525;SDS011;47394;41.366;-8.738;2022-10-16T13:29:35;15.70;;;2.83;;
61525;SDS011;47394;41.366;-8.738;2022-10-16T13:31:37;12.23;;;2.53;;
61525;SDS011;47394;41.366;-8.738;2022-10-16T13:33:41;12.00;;;2.67;;
61525;SDS011;47394;41.366;-8.738;2022-10-16T13:35:49;21.90;;;4.05;;
61525;SDS011;47394;41.366;-8.738;2022-10-16T13:37:50;16.23;;;3.65;;
61525;SDS011;47394;41.366;-8.738;2022-10-16T13:39:51;10.68;;;2.78;;
61525;SDS011;47394;41.366;-8.738;2022-10-16T13:44:03;19.27;;;3.72;;
61525;SDS011;47394;41.366;-8.738;2022-10-16T13:46:05;14.57;;;3.15;;
61525;SDS011;47394;41.366;-8.738;2022-10-16T13:48:08;15.00;;;3.00;;